sensor_id;sensor_type;location;lat;lon;timestamp;temperature;humidity
3071;DHT22;1546;47.208;9.038;2022-08-19T00:00:11;18.90;99.90
3071;DHT22;1546;47.208;9.038;2022-08-19T00:02:59;18.80;99.90
3071;DHT22;1546;47.208;9.038;2022-08-19T00:05:45;18.90;99.90
3071;DHT22;1546;47.208;9.038;2022-08-19T00:08:30;18.90;99.90
3071;DHT22;1546;47.208;9.038;2022-08-19T00:11:16;18.90;99.90
3071;DHT22;1546;47.208;9.038;2022-08-19T00:14:02;18.80;99.90
3071;DHT22;1546;47.208;9.038;2022-08-19T00:16:48;18.90;99.90
3071;DHT22;1546;47.208;9.038;2022-08-19T00:19:37;18.90;99.90
3071;DHT22;1546;47.208;9.038;2022-08-19T00:22:23;18.90;99.90
3071;DHT22;1546;47.208;9.038;2022-08-19T00:25:11;19.00;99.90
3071;DHT22;1546;47.208;9.038;2022-08-19T00:27:57;19.00;99.90
3071;DHT22;1546;47.208;9.038;2022-08-19T00:30:43;19.00;99.90
3071;DHT22;1546;47.208;9.038;2022-08-19T00:33:29;18.90;99.90
3071;DHT22;1546;47.208;9.038;2022-08-19T00:36:18;18.90;99.90
3071;DHT22;1546;47.208;9.038;2022-08-19T00:39:04;18.90;99.90
3071;DHT22;1546;47.208;9.038;2022-08-19T00:41:50;18.90;99.90
3071;DHT22;1546;47.208;9.038;2022-08-19T00:44:36;19.00;99.90
3071;DHT22;1546;47.208;9.038;2022-08-19T00:47:22;18.90;99.90
3071;DHT22;1546;47.208;9.038;2022-08-19T00:50:08;18.90;99.90
3071;DHT22;1546;47.208;9.038;2022-08-19T00:52:56;18.90;99.90
3071;DHT22;1546;47.208;9.038;2022-08-19T00:55:43;18.80;99.90
3071;DHT22;1546;47.208;9.038;2022-08-19T00:58:33;18.70;99.90
3071;DHT22;1546;47.208;9.038;2022-08-19T01:01:20;18.80;99.90
3071;DHT22;1546;47.208;9.038;2022-08-19T01:04:06;18.70;99.90
3071;DHT22;1546;47.208;9.038;2022-08-19T01:06:51;18.70;99.90
3071;DHT22;1546;47.208;9.038;2022-08-19T01:09:38;18.60;99.90
3071;DHT22;1546;47.208;9.038;2022-08-19T01:12:24;18.50;99.90
3071;DHT22;1546;47.208;9.038;2022-08-19T01:15:12;18.50;99.90
3071;DHT22;1546;47.208;9.038;2022-08-19T01:18:02;18.50;99.90
3071;DHT22;1546;47.208;9.038;2022-08-19T01:20:51;18.60;99.90
3071;DHT22;1546;47.208;9.038;2022-08-19T01:23:38;18.40;99.90
3071;DHT22;1546;47.208;9.038;2022-08-19T01:26:29;18.30;99.90
3071;DHT22;1546;47.208;9.038;2022-08-19T01:29:15;18.40;99.90
3071;DHT22;1546;47.208;9.038;2022-08-19T01:32:01;18.30;99.90
3071;DHT22;1546;47.208;9.038;2022-08-19T01:34:46;18.20;99.90
3071;DHT22;1546;47.208;9.038;2022-08-19T01:37:42;18.20;99.90
3071;DHT22;1546;47.208;9.038;2022-08-19T01:40:31;18.40;99.90
3071;DHT22;1546;47.208;9.038;2022-08-19T01:43:17;18.40;99.90
3071;DHT22;1546;47.208;9.038;2022-08-19T01:46:03;18.50;99.90
3071;DHT22;1546;47.208;9.038;2022-08-19T01:48:49;18.60;99.90
3071;DHT22;1546;47.208;9.038;2022-08-19T01:51:35;18.60;99.90
3071;DHT22;1546;47.208;9.038;2022-08-19T01:54:23;18.70;99.90
3071;DHT22;1546;47.208;9.038;2022-08-19T01:57:12;18.70;99.90
3071;DHT22;1546;47.208;9.038;2022-08-19T01:59:58;18.90;99.90
3071;DHT22;1546;47.208;9.038;2022-08-19T02:02:44;18.80;99.90
3071;DHT22;1546;47.208;9.038;2022-08-19T02:05:30;18.80;99.90
3071;DHT22;1546;47.208;9.038;2022-08-19T02:08:16;18.90;99.90
3071;DHT22;1546;47.208;9.038;2022-08-19T02:11:02;18.90;99.90
3071;DHT22;1546;47.208;9.038;2022-08-19T02:13:49;18.90;99.90
3071;DHT22;1546;47.208;9.038;2022-08-19T02:16:35;19.00;99.90
3071;DHT22;1546;47.208;9.038;2022-08-19T02:19:20;18.90;99.90
3071;DHT22;1546;47.208;9.038;2022-08-19T02:22:06;18.90;99.90
3071;DHT22;1546;47.208;9.038;2022-08-19T02:24:52;18.90;99.90
3071;DHT22;1546;47.208;9.038;2022-08-19T02:27:38;18.80;99.90
3071;DHT22;1546;47.208;9.038;2022-08-19T02:30:26;18.80;99.90
3071;DHT22;1546;47.208;9.038;2022-08-19T02:33:12;19.00;99.90
3071;DHT22;1546;47.208;9.038;2022-08-19T02:35:57;19.00;99.90
3071;DHT22;1546;47.208;9.038;2022-08-19T02:38:43;19.00;99.90
3071;DHT22;1546;47.208;9.038;2022-08-19T02:41:31;18.90;99.90
3071;DHT22;1546;47.208;9.038;2022-08-19T02:44:17;18.90;99.90
3071;DHT22;1546;47.208;9.038;2022-08-19T02:47:04;18.90;99.90
3071;DHT22;1546;47.208;9.038;2022-08-19T02:49:50;18.90;99.90
3071;DHT22;1546;47.208;9.038;2022-08-19T02:52:36;18.90;99.90
3071;DHT22;1546;47.208;9.038;2022-08-19T02:55:22;18.80;99.90
3071;DHT22;1546;47.208;9.038;2022-08-19T02:58:07;18.80;99.90
3071;DHT22;1546;47.208;9.038;2022-08-19T03:00:54;18.60;99.90
3071;DHT22;1546;47.208;9.038;2022-08-19T03:03:41;18.60;99.90
3071;DHT22;1546;47.208;9.038;2022-08-19T03:06:28;18.60;99.90
3071;DHT22;1546;47.208;9.038;2022-08-19T03:09:14;18.60;99.90
3071;DHT22;1546;47.208;9.038;2022-08-19T03:11:59;18.70;99.90
3071;DHT22;1546;47.208;9.038;2022-08-19T03:14:45;18.80;99.90
3071;DHT22;1546;47.208;9.038;2022-08-19T03:17:30;18.80;99.90
3071;DHT22;1546;47.208;9.038;2022-08-19T03:20:17;18.90;99.90
3071;DHT22;1546;47.208;9.038;2022-08-19T03:23:03;18.90;99.90
3071;DHT22;1546;47.208;9.038;2022-08-19T03:25:51;19.00;99.90
3071;DHT22;1546;47.208;9.038;2022-08-19T03:28:37;18.90;99.90
3071;DHT22;1546;47.208;9.038;2022-08-19T03:31:23;18.90;99.90
3071;DHT22;1546;47.208;9.038;2022-08-19T03:34:09;19.00;99.90
3071;DHT22;1546;47.208;9.038;2022-08-19T03:36:58;19.10;99.90
3071;DHT22;1546;47.208;9.038;2022-08-19T03:39:45;19.10;99.90
3071;DHT22;1546;47.208;9.038;2022-08-19T03:42:30;19.10;99.90
3071;DHT22;1546;47.208;9.038;2022-08-19T03:45:16;19.20;99.90
3071;DHT22;1546;47.208;9.038;2022-08-19T03:48:02;19.10;99.90
3071;DHT22;1546;47.208;9.038;2022-08-19T03:50:48;18.80;99.90
3071;DHT22;1546;47.208;9.038;2022-08-19T03:53:35;18.70;99.90
3071;DHT22;1546;47.208;9.038;2022-08-19T03:56:21;18.70;99.90
3071;DHT22;1546;47.208;9.038;2022-08-19T03:59:10;18.70;99.90
3071;DHT22;1546;47.208;9.038;2022-08-19T04:01:59;18.70;99.90
3071;DHT22;1546;47.208;9.038;2022-08-19T04:04:44;18.80;99.90
3071;DHT22;1546;47.208;9.038;2022-08-19T04:07:30;18.90;99.90
3071;DHT22;1546;47.208;9.038;2022-08-19T04:10:17;18.80;99.90
3071;DHT22;1546;47.208;9.038;2022-08-19T04:13:02;18.80;99.90
3071;DHT22;1546;47.208;9.038;2022-08-19T04:15:49;18.70;99.90
3071;DHT22;1546;47.208;9.038;2022-08-19T04:18:34;18.70;99.90
3071;DHT22;1546;47.208;9.038;2022-08-19T04:21:24;18.80;99.90
3071;DHT22;1546;47.208;9.038;2022-08-19T04:24:11;19.10;99.90
3071;DHT22;1546;47.208;9.038;2022-08-19T04:26:59;19.30;99.90
3071;DHT22;1546;47.208;9.038;2022-08-19T04:29:44;19.30;99.90
3071;DHT22;1546;47.208;9.038;2022-08-19T04:32:30;19.20;99.90
3071;DHT22;1546;47.208;9.038;2022-08-19T04:35:15;19.00;99.90
3071;DHT22;1546;47.208;9.038;2022-08-19T04:38:01;18.80;99.90
3071;DHT22;1546;47.208;9.038;2022-08-19T04:40:49;18.70;99.90
3071;DHT22;1546;47.208;9.038;2022-08-19T04:43:54;18.80;99.90
3071;DHT22;1546;47.208;9.038;2022-08-19T04:46:40;18.80;99.90
3071;DHT22;1546;47.208;9.038;2022-08-19T04:49:25;18.80;99.90
3071;DHT22;1546;47.208;9.038;2022-08-19T04:52:11;18.80;99.90
3071;DHT22;1546;47.208;9.038;2022-08-19T04:54:57;18.90;99.90
3071;DHT22;1546;47.208;9.038;2022-08-19T04:57:42;19.00;99.90
3071;DHT22;1546;47.208;9.038;2022-08-19T05:00:29;18.90;99.90
3071;DHT22;1546;47.208;9.038;2022-08-19T05:03:15;19.00;99.90
3071;DHT22;1546;47.208;9.038;2022-08-19T05:06:04;19.00;99.90
3071;DHT22;1546;47.208;9.038;2022-08-19T05:08:51;19.10;99.90
3071;DHT22;1546;47.208;9.038;2022-08-19T05:11:37;19.20;99.90
3071;DHT22;1546;47.208;9.038;2022-08-19T05:14:23;19.10;99.90
3071;DHT22;1546;47.208;9.038;2022-08-19T05:17:10;19.00;99.90
3071;DHT22;1546;47.208;9.038;2022-08-19T05:19:56;19.00;99.90
3071;DHT22;1546;47.208;9.038;2022-08-19T05:22:59;19.00;99.90
3071;DHT22;1546;47.208;9.038;2022-08-19T05:25:45;19.10;99.90
3071;DHT22;1546;47.208;9.038;2022-08-19T05:28:31;19.10;99.90
3071;DHT22;1546;47.208;9.038;2022-08-19T05:31:16;19.00;99.90
3071;DHT22;1546;47.208;9.038;2022-08-19T05:34:03;18.80;99.90
3071;DHT22;1546;47.208;9.038;2022-08-19T05:36:52;18.70;99.90
3071;DHT22;1546;47.208;9.038;2022-08-19T05:39:40;18.90;99.90
3071;DHT22;1546;47.208;9.038;2022-08-19T05:42:25;19.00;99.90
3071;DHT22;1546;47.208;9.038;2022-08-19T05:45:11;19.00;99.90
3071;DHT22;1546;47.208;9.038;2022-08-19T05:47:57;19.10;99.90
3071;DHT22;1546;47.208;9.038;2022-08-19T05:50:44;19.10;99.90
3071;DHT22;1546;47.208;9.038;2022-08-19T05:53:31;19.00;99.90
3071;DHT22;1546;47.208;9.038;2022-08-19T05:56:17;18.90;99.90
3071;DHT22;1546;47.208;9.038;2022-08-19T05:59:05;19.00;99.90
3071;DHT22;1546;47.208;9.038;2022-08-19T06:01:55;18.90;99.90
3071;DHT22;1546;47.208;9.038;2022-08-19T06:04:41;18.90;99.90
3071;DHT22;1546;47.208;9.038;2022-08-19T06:07:28;18.90;99.90
3071;DHT22;1546;47.208;9.038;2022-08-19T06:10:14;19.10;99.90
3071;DHT22;1546;47.208;9.038;2022-08-19T06:12:59;19.10;99.90
3071;DHT22;1546;47.208;9.038;2022-08-19T06:15:45;19.20;99.90
3071;DHT22;1546;47.208;9.038;2022-08-19T06:18:31;19.20;99.90
3071;DHT22;1546;47.208;9.038;2022-08-19T06:21:18;19.00;99.90
3071;DHT22;1546;47.208;9.038;2022-08-19T06:24:07;19.00;99.90
3071;DHT22;1546;47.208;9.038;2022-08-19T06:26:55;19.10;99.90
3071;DHT22;1546;47.208;9.038;2022-08-19T06:29:41;19.10;99.90
3071;DHT22;1546;47.208;9.038;2022-08-19T06:32:26;19.20;99.90
3071;DHT22;1546;47.208;9.038;2022-08-19T06:35:12;19.20;99.90
3071;DHT22;1546;47.208;9.038;2022-08-19T06:37:58;19.30;99.90
3071;DHT22;1546;47.208;9.038;2022-08-19T06:40:45;19.40;99.90
3071;DHT22;1546;47.208;9.038;2022-08-19T06:43:30;19.40;99.90
3071;DHT22;1546;47.208;9.038;2022-08-19T06:46:17;19.40;99.90
3071;DHT22;1546;47.208;9.038;2022-08-19T06:49:03;19.40;99.90
3071;DHT22;1546;47.208;9.038;2022-08-19T06:51:50;19.30;99.90
3071;DHT22;1546;47.208;9.038;2022-08-19T06:54:36;19.30;99.90
3071;DHT22;1546;47.208;9.038;2022-08-19T06:57:23;19.30;99.90
3071;DHT22;1546;47.208;9.038;2022-08-19T07:00:10;19.30;99.90
3071;DHT22;1546;47.208;9.038;2022-08-19T07:02:55;19.20;99.90
3071;DHT22;1546;47.208;9.038;2022-08-19T07:05:41;19.10;99.90
3071;DHT22;1546;47.208;9.038;2022-08-19T07:08:27;18.90;99.90
3071;DHT22;1546;47.208;9.038;2022-08-19T07:11:16;18.80;99.90
3071;DHT22;1546;47.208;9.038;2022-08-19T07:14:03;18.80;99.90
3071;DHT22;1546;47.208;9.038;2022-08-19T07:16:51;18.90;99.90
3071;DHT22;1546;47.208;9.038;2022-08-19T07:19:39;18.70;99.90
3071;DHT22;1546;47.208;9.038;2022-08-19T07:22:25;18.60;99.90
3071;DHT22;1546;47.208;9.038;2022-08-19T07:25:10;18.50;99.90
3071;DHT22;1546;47.208;9.038;2022-08-19T07:27:57;18.20;99.90
3071;DHT22;1546;47.208;9.038;2022-08-19T07:30:44;18.10;99.90
3071;DHT22;1546;47.208;9.038;2022-08-19T07:33:29;18.20;99.90
3071;DHT22;1546;47.208;9.038;2022-08-19T07:36:19;18.20;99.90
3071;DHT22;1546;47.208;9.038;2022-08-19T07:39:09;18.20;99.90
3071;DHT22;1546;47.208;9.038;2022-08-19T07:41:57;18.10;99.90
3071;DHT22;1546;47.208;9.038;2022-08-19T07:44:43;18.10;99.90
3071;DHT22;1546;47.208;9.038;2022-08-19T07:47:30;18.30;99.90
3071;DHT22;1546;47.208;9.038;2022-08-19T07:50:17;18.40;99.90
3071;DHT22;1546;47.208;9.038;2022-08-19T07:53:03;18.30;99.90
3071;DHT22;1546;47.208;9.038;2022-08-19T07:55:48;18.30;99.90
3071;DHT22;1546;47.208;9.038;2022-08-19T07:58:36;18.40;99.90
3071;DHT22;1546;47.208;9.038;2022-08-19T08:01:24;18.40;99.90
3071;DHT22;1546;47.208;9.038;2022-08-19T08:04:11;18.40;99.90
3071;DHT22;1546;47.208;9.038;2022-08-19T08:07:14;18.40;99.90
3071;DHT22;1546;47.208;9.038;2022-08-19T08:10:18;18.40;99.90
3071;DHT22;1546;47.208;9.038;2022-08-19T08:13:03;18.40;99.90
3071;DHT22;1546;47.208;9.038;2022-08-19T08:15:49;18.30;99.90
3071;DHT22;1546;47.208;9.038;2022-08-19T08:18:35;18.30;99.90
3071;DHT22;1546;47.208;9.038;2022-08-19T08:21:27;18.20;99.90
3071;DHT22;1546;47.208;9.038;2022-08-19T08:24:12;18.10;99.90
3071;DHT22;1546;47.208;9.038;2022-08-19T08:26:59;18.00;99.90
3071;DHT22;1546;47.208;9.038;2022-08-19T08:29:45;18.10;99.90
3071;DHT22;1546;47.208;9.038;2022-08-19T08:32:32;18.20;99.90
3071;DHT22;1546;47.208;9.038;2022-08-19T08:35:20;18.30;99.90
3071;DHT22;1546;47.208;9.038;2022-08-19T08:38:07;18.20;99.90
3071;DHT22;1546;47.208;9.038;2022-08-19T08:40:57;18.30;99.90
3071;DHT22;1546;47.208;9.038;2022-08-19T08:43:52;18.20;99.90
3071;DHT22;1546;47.208;9.038;2022-08-19T08:46:43;18.10;99.90
3071;DHT22;1546;47.208;9.038;2022-08-19T08:49:45;18.00;99.90
3071;DHT22;1546;47.208;9.038;2022-08-19T08:52:36;17.90;99.90
3071;DHT22;1546;47.208;9.038;2022-08-19T08:55:26;17.90;99.90
3071;DHT22;1546;47.208;9.038;2022-08-19T08:58:17;17.80;99.90
3071;DHT22;1546;47.208;9.038;2022-08-19T09:01:06;17.80;99.90
3071;DHT22;1546;47.208;9.038;2022-08-19T09:03:54;17.70;99.90
3071;DHT22;1546;47.208;9.038;2022-08-19T09:06:47;17.80;99.90
3071;DHT22;1546;47.208;9.038;2022-08-19T09:09:40;18.00;99.90
3071;DHT22;1546;47.208;9.038;2022-08-19T09:12:35;18.10;99.90
3071;DHT22;1546;47.208;9.038;2022-08-19T09:15:29;18.30;99.90
3071;DHT22;1546;47.208;9.038;2022-08-19T09:18:17;18.40;99.90
3071;DHT22;1546;47.208;9.038;2022-08-19T09:21:02;18.50;99.90
3071;DHT22;1546;47.208;9.038;2022-08-19T09:23:48;18.50;99.90
3071;DHT22;1546;47.208;9.038;2022-08-19T09:26:34;18.60;99.90
3071;DHT22;1546;47.208;9.038;2022-08-19T09:29:20;18.80;99.90
3071;DHT22;1546;47.208;9.038;2022-08-19T09:32:06;18.80;99.90
3071;DHT22;1546;47.208;9.038;2022-08-19T09:34:51;18.60;99.90
3071;DHT22;1546;47.208;9.038;2022-08-19T09:37:39;18.60;99.90
3071;DHT22;1546;47.208;9.038;2022-08-19T09:40:24;18.70;99.90
3071;DHT22;1546;47.208;9.038;2022-08-19T09:43:11;18.50;99.90
3071;DHT22;1546;47.208;9.038;2022-08-19T09:45:57;18.50;99.90
3071;DHT22;1546;47.208;9.038;2022-08-19T09:48:44;18.60;99.90
3071;DHT22;1546;47.208;9.038;2022-08-19T09:51:32;18.50;99.90
3071;DHT22;1546;47.208;9.038;2022-08-19T09:54:18;18.20;99.90
3071;DHT22;1546;47.208;9.038;2022-08-19T09:57:04;18.30;99.90
3071;DHT22;1546;47.208;9.038;2022-08-19T09:59:50;18.20;99.90
3071;DHT22;1546;47.208;9.038;2022-08-19T10:02:39;18.30;99.90
3071;DHT22;1546;47.208;9.038;2022-08-19T10:05:24;18.40;99.90
3071;DHT22;1546;47.208;9.038;2022-08-19T10:08:30;18.20;99.90
3071;DHT22;1546;47.208;9.038;2022-08-19T10:11:18;18.20;99.90
3071;DHT22;1546;47.208;9.038;2022-08-19T10:14:04;18.00;99.90
3071;DHT22;1546;47.208;9.038;2022-08-19T10:16:51;18.00;99.90
3071;DHT22;1546;47.208;9.038;2022-08-19T10:19:38;17.90;99.90
3071;DHT22;1546;47.208;9.038;2022-08-19T10:22:24;18.00;99.90
3071;DHT22;1546;47.208;9.038;2022-08-19T10:25:10;17.90;99.90
3071;DHT22;1546;47.208;9.038;2022-08-19T10:27:56;17.80;99.90
3071;DHT22;1546;47.208;9.038;2022-08-19T10:30:42;17.60;99.90
3071;DHT22;1546;47.208;9.038;2022-08-19T10:33:28;17.80;99.90
3071;DHT22;1546;47.208;9.038;2022-08-19T10:36:18;18.00;99.90
3071;DHT22;1546;47.208;9.038;2022-08-19T10:39:06;18.10;99.90
3071;DHT22;1546;47.208;9.038;2022-08-19T10:41:52;18.00;99.90
3071;DHT22;1546;47.208;9.038;2022-08-19T10:44:37;17.90;99.90
3071;DHT22;1546;47.208;9.038;2022-08-19T10:47:23;17.70;99.90
3071;DHT22;1546;47.208;9.038;2022-08-19T10:50:09;17.70;99.90
3071;DHT22;1546;47.208;9.038;2022-08-19T10:53:14;17.50;99.90
3071;DHT22;1546;47.208;9.038;2022-08-19T10:55:59;17.60;99.90
3071;DHT22;1546;47.208;9.038;2022-08-19T10:58:59;17.60;99.90
3071;DHT22;1546;47.208;9.038;2022-08-19T11:01:47;17.50;99.90
3071;DHT22;1546;47.208;9.038;2022-08-19T11:04:33;17.50;99.90
3071;DHT22;1546;47.208;9.038;2022-08-19T11:07:18;17.60;99.90
3071;DHT22;1546;47.208;9.038;2022-08-19T11:10:09;15.00;99.90
3071;DHT22;1546;47.208;9.038;2022-08-19T11:12:54;17.70;99.90
3071;DHT22;1546;47.208;9.038;2022-08-19T11:15:40;17.80;99.90
3071;DHT22;1546;47.208;9.038;2022-08-19T11:18:26;17.90;99.90
3071;DHT22;1546;47.208;9.038;2022-08-19T11:21:14;17.90;99.90
3071;DHT22;1546;47.208;9.038;2022-08-19T11:24:02;17.90;99.90
3071;DHT22;1546;47.208;9.038;2022-08-19T11:26:52;17.90;99.90
3071;DHT22;1546;47.208;9.038;2022-08-19T11:29:40;17.90;99.90
3071;DHT22;1546;47.208;9.038;2022-08-19T11:32:26;18.00;99.90
3071;DHT22;1546;47.208;9.038;2022-08-19T11:35:11;18.20;99.90
3071;DHT22;1546;47.208;9.038;2022-08-19T11:37:57;18.10;99.90
3071;DHT22;1546;47.208;9.038;2022-08-19T11:40:45;18.00;99.90
3071;DHT22;1546;47.208;9.038;2022-08-19T11:43:32;17.80;99.90
3071;DHT22;1546;47.208;9.038;2022-08-19T11:46:17;17.90;99.90
3071;DHT22;1546;47.208;9.038;2022-08-19T11:49:04;17.90;99.90
3071;DHT22;1546;47.208;9.038;2022-08-19T11:51:53;18.10;99.90
3071;DHT22;1546;47.208;9.038;2022-08-19T11:54:39;18.10;99.90
3071;DHT22;1546;47.208;9.038;2022-08-19T11:57:24;18.00;99.90
3071;DHT22;1546;47.208;9.038;2022-08-19T12:00:13;18.00;99.90
3071;DHT22;1546;47.208;9.038;2022-08-19T12:02:58;18.10;99.90
3071;DHT22;1546;47.208;9.038;2022-08-19T12:05:44;18.10;99.90
3071;DHT22;1546;47.208;9.038;2022-08-19T12:08:29;18.30;99.90
3071;DHT22;1546;47.208;9.038;2022-08-19T12:11:15;18.10;99.90
3071;DHT22;1546;47.208;9.038;2022-08-19T12:14:01;18.10;99.90
3071;DHT22;1546;47.208;9.038;2022-08-19T12:16:48;18.00;99.90
3071;DHT22;1546;47.208;9.038;2022-08-19T12:19:35;18.00;99.90
3071;DHT22;1546;47.208;9.038;2022-08-19T12:22:21;17.90;99.90
3071;DHT22;1546;47.208;9.038;2022-08-19T12:25:10;17.80;99.90
3071;DHT22;1546;47.208;9.038;2022-08-19T12:27:56;17.80;99.90
3071;DHT22;1546;47.208;9.038;2022-08-19T12:30:42;17.70;99.90
3071;DHT22;1546;47.208;9.038;2022-08-19T12:33:29;17.70;99.90
3071;DHT22;1546;47.208;9.038;2022-08-19T12:36:16;17.70;99.90
3071;DHT22;1546;47.208;9.038;2022-08-19T12:39:02;17.80;99.90
3071;DHT22;1546;47.208;9.038;2022-08-19T12:41:48;17.80;99.90
3071;DHT22;1546;47.208;9.038;2022-08-19T12:44:34;17.80;99.90
3071;DHT22;1546;47.208;9.038;2022-08-19T12:47:19;17.90;99.90
3071;DHT22;1546;47.208;9.038;2022-08-19T12:50:07;18.00;99.90
3071;DHT22;1546;47.208;9.038;2022-08-19T12:52:53;18.20;99.90
3071;DHT22;1546;47.208;9.038;2022-08-19T12:55:39;18.20;99.90
3071;DHT22;1546;47.208;9.038;2022-08-19T12:58:25;18.20;99.90
3071;DHT22;1546;47.208;9.038;2022-08-19T13:01:13;18.30;99.90
3071;DHT22;1546;47.208;9.038;2022-08-19T13:03:59;18.30;99.90
3071;DHT22;1546;47.208;9.038;2022-08-19T13:06:46;18.20;99.90
3071;DHT22;1546;47.208;9.038;2022-08-19T13:09:32;18.10;99.90
3071;DHT22;1546;47.208;9.038;2022-08-19T13:12:18;18.00;99.90
3071;DHT22;1546;47.208;9.038;2022-08-19T13:15:05;17.90;99.90
3071;DHT22;1546;47.208;9.038;2022-08-19T13:17:52;17.80;99.90
3071;DHT22;1546;47.208;9.038;2022-08-19T13:20:40;18.00;99.90
3071;DHT22;1546;47.208;9.038;2022-08-19T13:23:27;18.20;99.90
3071;DHT22;1546;47.208;9.038;2022-08-19T13:26:14;18.30;99.90
3071;DHT22;1546;47.208;9.038;2022-08-19T13:29:00;18.20;99.90
3071;DHT22;1546;47.208;9.038;2022-08-19T13:32:03;18.10;99.90
3071;DHT22;1546;47.208;9.038;2022-08-19T13:35:18;18.20;99.90
3071;DHT22;1546;47.208;9.038;2022-08-19T13:38:03;18.20;99.90
3071;DHT22;1546;47.208;9.038;2022-08-19T13:40:52;18.20;99.90
3071;DHT22;1546;47.208;9.038;2022-08-19T13:43:37;18.10;99.90
3071;DHT22;1546;47.208;9.038;2022-08-19T13:46:23;18.00;99.90
3071;DHT22;1546;47.208;9.038;2022-08-19T13:49:08;18.00;99.90
3071;DHT22;1546;47.208;9.038;2022-08-19T13:51:54;17.90;99.90
3071;DHT22;1546;47.208;9.038;2022-08-19T13:54:40;18.00;99.90
3071;DHT22;1546;47.208;9.038;2022-08-19T13:57:27;18.00;99.90
3071;DHT22;1546;47.208;9.038;2022-08-19T14:00:15;18.10;99.90
3071;DHT22;1546;47.208;9.038;2022-08-19T14:03:02;18.20;99.90
3071;DHT22;1546;47.208;9.038;2022-08-19T14:05:48;18.20;99.90
3071;DHT22;1546;47.208;9.038;2022-08-19T14:08:33;18.20;99.90
3071;DHT22;1546;47.208;9.038;2022-08-19T14:11:23;18.20;99.90
3071;DHT22;1546;47.208;9.038;2022-08-19T14:14:10;18.20;99.90
3071;DHT22;1546;47.208;9.038;2022-08-19T14:16:56;18.20;99.90
3071;DHT22;1546;47.208;9.038;2022-08-19T14:19:42;18.20;99.90
3071;DHT22;1546;47.208;9.038;2022-08-19T14:22:27;18.10;99.90
3071;DHT22;1546;47.208;9.038;2022-08-19T14:25:15;18.30;99.90
3071;DHT22;1546;47.208;9.038;2022-08-19T14:28:00;18.30;99.90
3071;DHT22;1546;47.208;9.038;2022-08-19T14:30:47;18.50;99.90
3071;DHT22;1546;47.208;9.038;2022-08-19T14:33:33;18.70;99.90
3071;DHT22;1546;47.208;9.038;2022-08-19T14:36:19;18.90;99.90
3071;DHT22;1546;47.208;9.038;2022-08-19T14:39:06;18.90;99.90
3071;DHT22;1546;47.208;9.038;2022-08-19T14:41:51;18.80;99.90
3071;DHT22;1546;47.208;9.038;2022-08-19T14:44:37;18.70;99.90
3071;DHT22;1546;47.208;9.038;2022-08-19T14:47:24;18.50;99.90
3071;DHT22;1546;47.208;9.038;2022-08-19T14:50:11;18.40;99.90
3071;DHT22;1546;47.208;9.038;2022-08-19T14:53:01;18.40;99.90
3071;DHT22;1546;47.208;9.038;2022-08-19T14:55:47;18.30;99.90
3071;DHT22;1546;47.208;9.038;2022-08-19T14:58:33;18.40;99.90
3071;DHT22;1546;47.208;9.038;2022-08-19T15:01:21;18.30;99.90
3071;DHT22;1546;47.208;9.038;2022-08-19T15:04:08;18.20;99.90
3071;DHT22;1546;47.208;9.038;2022-08-19T15:06:54;18.00;99.90
3071;DHT22;1546;47.208;9.038;2022-08-19T15:09:39;17.70;99.90
3071;DHT22;1546;47.208;9.038;2022-08-19T15:12:25;17.40;99.90
3071;DHT22;1546;47.208;9.038;2022-08-19T15:15:13;17.40;99.90
3071;DHT22;1546;47.208;9.038;2022-08-19T15:17:58;17.40;99.90
3071;DHT22;1546;47.208;9.038;2022-08-19T15:20:48;17.40;99.90
3071;DHT22;1546;47.208;9.038;2022-08-19T15:23:34;17.60;99.90
3071;DHT22;1546;47.208;9.038;2022-08-19T15:26:20;17.70;99.90
3071;DHT22;1546;47.208;9.038;2022-08-19T15:29:05;17.90;99.90
3071;DHT22;1546;47.208;9.038;2022-08-19T15:31:51;17.90;99.90
3071;DHT22;1546;47.208;9.038;2022-08-19T15:34:39;18.10;99.90
3071;DHT22;1546;47.208;9.038;2022-08-19T15:37:26;18.20;99.90
3071;DHT22;1546;47.208;9.038;2022-08-19T15:40:11;18.30;99.90
3071;DHT22;1546;47.208;9.038;2022-08-19T15:42:56;18.30;99.90
3071;DHT22;1546;47.208;9.038;2022-08-19T15:45:43;18.40;99.90
3071;DHT22;1546;47.208;9.038;2022-08-19T15:48:29;18.50;99.90
3071;DHT22;1546;47.208;9.038;2022-08-19T15:51:15;18.50;99.90
3071;DHT22;1546;47.208;9.038;2022-08-19T15:54:04;18.50;99.90
3071;DHT22;1546;47.208;9.038;2022-08-19T15:56:50;18.50;99.90
3071;DHT22;1546;47.208;9.038;2022-08-19T15:59:53;18.50;99.90
3071;DHT22;1546;47.208;9.038;2022-08-19T16:02:56;18.60;99.90
3071;DHT22;1546;47.208;9.038;2022-08-19T16:05:59;18.60;99.90
3071;DHT22;1546;47.208;9.038;2022-08-19T16:09:04;18.50;99.90
3071;DHT22;1546;47.208;9.038;2022-08-19T16:11:49;18.50;99.90
3071;DHT22;1546;47.208;9.038;2022-08-19T16:14:35;18.50;99.90
3071;DHT22;1546;47.208;9.038;2022-08-19T16:17:22;18.50;99.90
3071;DHT22;1546;47.208;9.038;2022-08-19T16:20:09;18.50;99.90
3071;DHT22;1546;47.208;9.038;2022-08-19T16:22:59;18.60;99.90
3071;DHT22;1546;47.208;9.038;2022-08-19T16:25:48;18.70;99.90
3071;DHT22;1546;47.208;9.038;2022-08-19T16:28:33;18.70;99.90
3071;DHT22;1546;47.208;9.038;2022-08-19T16:31:19;18.70;99.90
3071;DHT22;1546;47.208;9.038;2022-08-19T16:34:05;18.70;99.90
3071;DHT22;1546;47.208;9.038;2022-08-19T16:36:50;18.60;99.90
3071;DHT22;1546;47.208;9.038;2022-08-19T16:39:36;18.60;99.90
3071;DHT22;1546;47.208;9.038;2022-08-19T16:42:23;18.60;99.90
3071;DHT22;1546;47.208;9.038;2022-08-19T16:45:09;18.60;99.90
3071;DHT22;1546;47.208;9.038;2022-08-19T16:47:54;18.70;99.90
3071;DHT22;1546;47.208;9.038;2022-08-19T16:50:41;18.80;99.90
3071;DHT22;1546;47.208;9.038;2022-08-19T16:53:30;18.80;99.90
3071;DHT22;1546;47.208;9.038;2022-08-19T16:56:16;18.80;99.90
3071;DHT22;1546;47.208;9.038;2022-08-19T16:59:04;18.80;99.90
3071;DHT22;1546;47.208;9.038;2022-08-19T17:01:49;18.70;99.90
3071;DHT22;1546;47.208;9.038;2022-08-19T17:04:35;18.50;99.90
3071;DHT22;1546;47.208;9.038;2022-08-19T17:07:21;18.50;99.90
3071;DHT22;1546;47.208;9.038;2022-08-19T17:10:07;18.40;99.90
3071;DHT22;1546;47.208;9.038;2022-08-19T17:12:52;18.40;99.90
3071;DHT22;1546;47.208;9.038;2022-08-19T17:15:39;18.40;99.90
3071;DHT22;1546;47.208;9.038;2022-08-19T17:18:25;18.40;99.90
3071;DHT22;1546;47.208;9.038;2022-08-19T17:21:11;18.40;99.90
3071;DHT22;1546;47.208;9.038;2022-08-19T17:23:58;18.40;99.90
3071;DHT22;1546;47.208;9.038;2022-08-19T17:26:44;18.40;99.90
3071;DHT22;1546;47.208;9.038;2022-08-19T17:29:29;18.30;99.90
3071;DHT22;1546;47.208;9.038;2022-08-19T17:32:16;18.30;99.90
3071;DHT22;1546;47.208;9.038;2022-08-19T17:35:03;18.30;99.90
3071;DHT22;1546;47.208;9.038;2022-08-19T17:37:49;18.20;99.90
3071;DHT22;1546;47.208;9.038;2022-08-19T17:40:34;18.20;99.90
3071;DHT22;1546;47.208;9.038;2022-08-19T17:43:20;18.20;99.90
3071;DHT22;1546;47.208;9.038;2022-08-19T17:46:06;18.10;99.90
3071;DHT22;1546;47.208;9.038;2022-08-19T17:48:53;18.20;99.90
3071;DHT22;1546;47.208;9.038;2022-08-19T17:51:43;18.30;99.90
3071;DHT22;1546;47.208;9.038;2022-08-19T17:54:29;18.50;99.90
3071;DHT22;1546;47.208;9.038;2022-08-19T17:57:14;18.60;99.90
3071;DHT22;1546;47.208;9.038;2022-08-19T18:00:00;18.60;99.90
3071;DHT22;1546;47.208;9.038;2022-08-19T18:02:48;18.70;99.90
3071;DHT22;1546;47.208;9.038;2022-08-19T18:05:42;18.70;99.90
3071;DHT22;1546;47.208;9.038;2022-08-19T18:08:27;18.60;99.90
3071;DHT22;1546;47.208;9.038;2022-08-19T18:11:13;18.50;99.90